createdAt,value
2017-11-26T00:01:15.063Z,99.90
2017-11-26T00:03:43.559Z,99.90
2017-11-26T00:06:11.934Z,99.90
2017-11-26T00:08:40.299Z,99.90
2017-11-26T00:11:08.751Z,99.90
2017-11-26T00:13:37.118Z,99.90
2017-11-26T00:16:05.504Z,99.90
2017-11-26T00:18:34.060Z,99.90
2017-11-26T00:21:03.208Z,99.90
2017-11-26T00:23:31.587Z,99.90
2017-11-26T00:26:00.187Z,99.90
2017-11-26T00:28:28.610Z,99.90
2017-11-26T00:30:56.982Z,99.90
2017-11-26T00:33:25.922Z,99.90
2017-11-26T00:35:54.355Z,99.90
2017-11-26T00:38:22.740Z,99.90
2017-11-26T00:40:51.238Z,99.90
2017-11-26T00:43:19.631Z,99.90
2017-11-26T00:45:48.012Z,99.90
2017-11-26T00:48:16.506Z,99.90
2017-11-26T00:50:44.874Z,99.90
2017-11-26T00:53:13.238Z,99.90
2017-11-26T00:55:41.651Z,99.90
2017-11-26T00:58:10.067Z,99.90
2017-11-26T01:00:38.452Z,99.90
2017-11-26T01:03:07.194Z,99.90
2017-11-26T01:05:35.559Z,99.90
2017-11-26T01:08:03.944Z,99.90
2017-11-26T01:10:32.465Z,99.90
2017-11-26T01:13:01.594Z,99.90
2017-11-26T01:15:29.966Z,99.90
2017-11-26T01:17:58.667Z,99.90
2017-11-26T01:20:27.039Z,99.90
2017-11-26T01:22:55.410Z,99.90
2017-11-26T01:25:23.906Z,99.90
2017-11-26T01:27:52.289Z,99.90
2017-11-26T01:30:20.656Z,99.90
2017-11-26T01:32:49.078Z,99.90
2017-11-26T01:35:18.233Z,99.90
2017-11-26T01:37:46.616Z,99.90
2017-11-26T01:40:15.111Z,99.90
2017-11-26T01:42:43.487Z,99.90
2017-11-26T01:45:11.864Z,99.90
2017-11-26T01:47:40.422Z,99.90
2017-11-26T01:50:08.804Z,99.90
2017-11-26T01:52:37.184Z,99.90
2017-11-26T01:55:05.686Z,99.90
2017-11-26T01:57:34.060Z,99.90
2017-11-26T02:00:02.457Z,99.90
2017-11-26T02:02:30.977Z,99.90
2017-11-26T02:04:59.356Z,99.90
2017-11-26T02:07:27.792Z,99.90
2017-11-26T02:09:57.108Z,99.90
2017-11-26T02:12:25.486Z,99.90
2017-11-26T02:14:53.890Z,99.90
2017-11-26T02:17:22.507Z,99.90
2017-11-26T02:19:50.886Z,99.90
2017-11-26T02:22:19.328Z,99.90
2017-11-26T02:24:48.154Z,99.90
2017-11-26T02:27:17.043Z,99.90
2017-11-26T02:29:45.869Z,99.90
2017-11-26T02:32:32.951Z,99.90
2017-11-26T02:35:19.288Z,99.90
2017-11-26T02:37:48.163Z,99.90
2017-11-26T02:40:17.031Z,99.90
2017-11-26T02:42:45.860Z,99.90
2017-11-26T02:45:14.350Z,99.90
2017-11-26T02:47:44.066Z,99.90
2017-11-26T02:50:13.774Z,99.90
2017-11-26T02:52:42.941Z,99.90
2017-11-26T02:55:11.333Z,99.90
2017-11-26T02:57:39.924Z,99.90
2017-11-26T03:00:09.069Z,99.90
2017-11-26T03:02:37.439Z,99.90
2017-11-26T03:05:05.841Z,99.90
2017-11-26T03:07:34.234Z,99.90
2017-11-26T03:10:02.622Z,99.90
2017-11-26T03:12:31.269Z,99.90
2017-11-26T03:14:59.665Z,99.90
2017-11-26T03:17:28.038Z,99.90
2017-11-26T03:19:56.459Z,99.90
2017-11-26T03:22:25.703Z,99.90
2017-11-26T03:24:54.080Z,99.90
2017-11-26T03:27:22.517Z,99.90
2017-11-26T03:29:51.689Z,99.90
2017-11-26T03:32:20.075Z,99.90
2017-11-26T03:34:48.642Z,99.90
2017-11-26T03:37:17.020Z,99.90
2017-11-26T03:39:45.431Z,99.90
2017-11-26T03:42:14.643Z,99.90
2017-11-26T03:44:43.778Z,99.90
2017-11-26T03:47:12.161Z,99.90
2017-11-26T03:49:40.663Z,99.90
2017-11-26T03:52:09.104Z,99.90
2017-11-26T03:54:37.486Z,99.90
2017-11-26T03:57:05.898Z,99.90
2017-11-26T03:59:34.271Z,99.90
2017-11-26T04:02:02.647Z,99.90
2017-11-26T04:04:31.073Z,99.90
2017-11-26T04:07:00.229Z,99.90
2017-11-26T04:09:28.603Z,99.90
2017-11-26T04:11:57.377Z,99.90
2017-11-26T04:14:25.756Z,99.90
2017-11-26T04:16:54.128Z,99.90
2017-11-26T04:19:22.555Z,99.90
2017-11-26T04:21:51.699Z,99.90
2017-11-26T04:24:20.112Z,99.90
2017-11-26T04:26:48.522Z,99.90
2017-11-26T04:29:17.661Z,99.90
2017-11-26T04:31:46.037Z,99.90
2017-11-26T04:34:14.549Z,99.90
2017-11-26T04:36:42.934Z,99.90
2017-11-26T04:39:11.320Z,99.90
2017-11-26T04:41:39.731Z,99.90
2017-11-26T04:44:08.103Z,99.90
2017-11-26T04:46:36.480Z,99.90
2017-11-26T04:49:05.186Z,99.90
2017-11-26T04:51:33.581Z,99.90
2017-11-26T04:54:02.777Z,99.90
2017-11-26T04:56:31.245Z,99.90
2017-11-26T04:58:59.625Z,99.90
2017-11-26T05:01:28.004Z,99.90
2017-11-26T05:03:56.529Z,99.90
2017-11-26T05:06:24.908Z,99.90
2017-11-26T05:08:53.275Z,99.90
2017-11-26T05:11:21.943Z,99.90
2017-11-26T05:13:50.323Z,99.90
2017-11-26T05:16:18.695Z,99.90
2017-11-26T05:18:47.472Z,99.90
2017-11-26T05:21:15.853Z,99.90
2017-11-26T05:23:44.238Z,99.90
2017-11-26T05:26:12.734Z,99.90
2017-11-26T05:28:41.094Z,99.90
2017-11-26T05:31:09.460Z,99.90
2017-11-26T05:33:37.871Z,99.90
2017-11-26T05:36:07.035Z,99.90
2017-11-26T05:38:35.415Z,99.90
2017-11-26T05:41:03.889Z,99.90
2017-11-26T05:43:32.325Z,99.90
2017-11-26T05:46:00.760Z,99.90
2017-11-26T05:48:29.330Z,99.90
2017-11-26T05:50:57.819Z,99.90
2017-11-26T05:53:29.509Z,99.90
2017-11-26T05:55:58.183Z,99.90
2017-11-26T05:58:26.551Z,99.90
2017-11-26T06:00:55.943Z,99.90
2017-11-26T06:03:24.331Z,99.90
2017-11-26T06:05:52.695Z,99.90
2017-11-26T06:08:21.897Z,99.90
2017-11-26T06:10:50.330Z,99.90
2017-11-26T06:13:19.680Z,99.90
2017-11-26T06:15:48.182Z,99.90
2017-11-26T06:18:16.565Z,99.90
2017-11-26T06:20:45.031Z,99.90
2017-11-26T06:23:14.444Z,99.90
2017-11-26T06:25:42.853Z,99.90
2017-11-26T06:28:12.091Z,99.90
2017-11-26T06:30:40.636Z,99.90
2017-11-26T06:33:09.851Z,99.90
2017-11-26T06:35:38.237Z,99.90
2017-11-26T06:38:06.894Z,99.90
2017-11-26T06:40:36.363Z,99.90
2017-11-26T06:43:04.744Z,99.90
2017-11-26T06:45:33.387Z,99.90
2017-11-26T06:48:01.759Z,99.90
2017-11-26T06:50:30.123Z,99.90
2017-11-26T06:52:59.686Z,99.90
2017-11-26T06:55:28.163Z,99.90
2017-11-26T06:57:56.585Z,99.90
2017-11-26T07:00:25.848Z,99.90
2017-11-26T07:02:54.246Z,99.90
2017-11-26T07:05:22.634Z,99.90
2017-11-26T07:07:51.132Z,99.90
2017-11-26T07:10:20.275Z,99.90
2017-11-26T07:12:48.653Z,99.90
2017-11-26T07:15:17.275Z,99.90
2017-11-26T07:17:45.636Z,99.90
2017-11-26T07:20:14.030Z,99.90
2017-11-26T07:22:42.690Z,99.90
2017-11-26T07:25:11.047Z,99.90
2017-11-26T07:27:39.449Z,99.90
2017-11-26T07:30:08.011Z,99.90
2017-11-26T07:32:36.429Z,99.90
2017-11-26T07:35:04.838Z,99.90
2017-11-26T07:37:34.274Z,99.90
2017-11-26T07:40:02.698Z,99.90
2017-11-26T07:42:31.068Z,99.90
2017-11-26T07:44:59.632Z,99.90
2017-11-26T07:47:28.018Z,99.90
2017-11-26T07:49:56.382Z,99.90
2017-11-26T07:52:24.894Z,98.20
2017-11-26T07:54:53.360Z,96.10
2017-11-26T07:57:22.576Z,95.40
2017-11-26T07:59:51.163Z,95.40
2017-11-26T08:02:20.298Z,96.20
2017-11-26T08:04:48.883Z,96.20
2017-11-26T08:07:17.337Z,96.40
2017-11-26T08:09:46.577Z,97.20
2017-11-26T08:12:14.941Z,97.20
2017-11-26T08:14:43.835Z,98.50
2017-11-26T08:17:12.259Z,99.20
2017-11-26T08:19:40.686Z,99.80
2017-11-26T08:22:09.432Z,99.90
2017-11-26T08:24:37.808Z,99.90
2017-11-26T08:27:06.173Z,99.90
2017-11-26T08:29:34.902Z,99.90
2017-11-26T08:32:03.296Z,99.90
2017-11-26T08:34:31.747Z,99.90
2017-11-26T08:37:01.225Z,99.90
2017-11-26T08:39:30.484Z,99.90
2017-11-26T08:41:58.859Z,99.90
2017-11-26T08:44:45.724Z,99.90
2017-11-26T08:47:14.352Z,99.90
2017-11-26T08:49:43.039Z,99.90
2017-11-26T08:52:11.404Z,99.90
2017-11-26T08:54:39.794Z,99.90
2017-11-26T08:57:08.479Z,99.90
2017-11-26T08:59:36.882Z,99.90
2017-11-26T09:02:05.246Z,99.90
2017-11-26T09:04:33.674Z,99.90
2017-11-26T09:07:06.771Z,99.90
2017-11-26T09:09:34.916Z,99.90
2017-11-26T09:12:03.349Z,99.90
2017-11-26T09:14:31.735Z,99.90
2017-11-26T09:17:00.296Z,99.90
2017-11-26T09:19:29.448Z,99.90
2017-11-26T09:21:57.828Z,99.90
2017-11-26T09:24:26.561Z,99.90
2017-11-26T09:26:54.928Z,99.90
2017-11-26T09:29:24.862Z,99.90
2017-11-26T09:31:53.362Z,99.90
2017-11-26T09:34:21.720Z,99.90
2017-11-26T09:36:50.084Z,99.90
2017-11-26T09:39:19.412Z,99.90
2017-11-26T09:41:47.835Z,99.90
2017-11-26T09:44:16.203Z,99.90
2017-11-26T09:46:44.862Z,99.90
2017-11-26T09:49:13.236Z,99.90
2017-11-26T09:51:41.602Z,99.50
2017-11-26T09:54:10.396Z,99.50
2017-11-26T09:56:38.790Z,99.70
2017-11-26T09:59:07.180Z,99.20
2017-11-26T10:01:35.597Z,99.20
2017-11-26T10:04:04.789Z,99.20
2017-11-26T10:06:33.264Z,99.20
2017-11-26T10:09:01.897Z,98.90
2017-11-26T10:11:30.276Z,99.60
2017-11-26T10:13:58.660Z,98.50
2017-11-26T10:16:27.475Z,99.00
2017-11-26T10:18:55.843Z,98.90
2017-11-26T10:21:24.330Z,99.50
2017-11-26T10:23:52.765Z,99.60
2017-11-26T10:26:21.165Z,99.40
2017-11-26T10:28:49.859Z,99.70
2017-11-26T10:31:18.330Z,99.30
2017-11-26T10:33:46.715Z,99.90
2017-11-26T10:36:15.478Z,99.00
2017-11-26T10:38:44.018Z,99.40
2017-11-26T10:41:12.409Z,99.80
2017-11-26T10:43:41.412Z,99.90
2017-11-26T10:46:11.082Z,99.90
2017-11-26T10:48:39.882Z,99.90
2017-11-26T10:51:10.697Z,99.90
2017-11-26T10:53:40.159Z,99.90
2017-11-26T10:56:08.832Z,99.90
2017-11-26T10:58:38.235Z,99.90
2017-11-26T11:01:08.061Z,99.90
2017-11-26T11:03:36.442Z,99.90
2017-11-26T11:06:05.195Z,99.90
2017-11-26T11:08:34.252Z,99.90
2017-11-26T11:11:02.762Z,99.90
2017-11-26T11:13:31.751Z,98.90
2017-11-26T11:16:00.418Z,95.40
2017-11-26T11:18:28.979Z,94.40
2017-11-26T11:20:57.479Z,93.70
2017-11-26T11:23:25.997Z,93.10
2017-11-26T11:25:55.204Z,95.10
2017-11-26T11:28:23.703Z,94.90
2017-11-26T11:30:52.148Z,95.40
2017-11-26T11:33:20.609Z,95.70
2017-11-26T11:35:49.216Z,96.90
2017-11-26T11:38:18.051Z,97.70
2017-11-26T11:40:46.883Z,98.00
2017-11-26T11:43:15.619Z,98.50
2017-11-26T11:45:44.451Z,98.60
2017-11-26T11:48:12.947Z,99.20
2017-11-26T11:50:41.365Z,98.60
2017-11-26T11:53:10.276Z,99.40
2017-11-26T11:55:39.239Z,99.40
2017-11-26T11:58:07.921Z,99.70
2017-11-26T12:00:37.574Z,99.90
2017-11-26T12:03:06.019Z,99.90
2017-11-26T12:05:34.401Z,99.90
2017-11-26T12:08:02.964Z,99.70
2017-11-26T12:10:32.145Z,99.90
2017-11-26T12:13:00.521Z,99.90
2017-11-26T12:15:29.084Z,99.90
2017-11-26T12:17:57.493Z,99.90
2017-11-26T12:20:26.657Z,99.90
2017-11-26T12:22:55.550Z,99.90
2017-11-26T12:25:26.130Z,99.90
2017-11-26T12:27:55.008Z,99.90
2017-11-26T12:30:23.958Z,99.90
2017-11-26T12:32:53.155Z,99.90
2017-11-26T12:35:22.137Z,99.90
2017-11-26T12:37:51.955Z,99.90
2017-11-26T12:40:21.865Z,99.90
2017-11-26T12:42:51.691Z,99.90
2017-11-26T12:45:21.519Z,99.90
2017-11-26T12:47:51.493Z,99.90
2017-11-26T12:50:21.564Z,99.90
2017-11-26T12:52:52.127Z,98.70
2017-11-26T12:55:21.945Z,98.70
2017-11-26T12:57:51.442Z,97.40
2017-11-26T13:00:21.251Z,97.60
2017-11-26T13:02:51.387Z,97.30
2017-11-26T13:05:21.346Z,98.10
2017-11-26T13:07:50.718Z,98.50
2017-11-26T13:10:21.519Z,98.60
2017-11-26T13:12:51.704Z,98.40
2017-11-26T13:15:20.526Z,98.70
2017-11-26T13:17:50.645Z,98.70
2017-11-26T13:20:20.622Z,99.20
2017-11-26T13:22:51.120Z,99.30
2017-11-26T13:25:21.280Z,99.30
2017-11-26T13:27:51.139Z,99.20
2017-11-26T13:30:20.343Z,99.20
2017-11-26T13:32:50.265Z,98.90
2017-11-26T13:35:19.458Z,98.90
2017-11-26T13:37:48.711Z,99.70
2017-11-26T13:40:20.289Z,99.90
2017-11-26T13:42:49.464Z,99.90
2017-11-26T13:45:18.059Z,99.90
2017-11-26T13:47:48.789Z,99.90
2017-11-26T13:50:17.390Z,99.90
2017-11-26T13:52:47.018Z,99.90
2017-11-26T13:55:15.648Z,99.90
2017-11-26T13:57:44.861Z,99.90
2017-11-26T14:00:14.260Z,99.90
2017-11-26T14:02:43.296Z,99.90
2017-11-26T14:05:12.247Z,99.90
2017-11-26T14:07:41.393Z,99.90
2017-11-26T14:10:10.592Z,99.90
2017-11-26T14:12:39.917Z,99.90
2017-11-26T14:15:09.588Z,99.90
2017-11-26T14:17:38.069Z,99.90
2017-11-26T14:20:06.873Z,99.90
2017-11-26T14:22:35.866Z,99.90
2017-11-26T14:25:05.619Z,99.90
2017-11-26T14:27:34.025Z,99.90
2017-11-26T14:30:05.349Z,99.90
2017-11-26T14:32:36.324Z,99.90
2017-11-26T14:35:06.508Z,99.90
2017-11-26T14:37:38.875Z,99.90
2017-11-26T14:40:10.670Z,99.90
2017-11-26T14:42:39.248Z,99.90
2017-11-26T14:45:07.705Z,99.90
2017-11-26T14:47:36.649Z,99.90
2017-11-26T14:50:05.822Z,99.90
2017-11-26T14:52:36.341Z,99.90
2017-11-26T14:55:05.950Z,99.90
2017-11-26T14:57:35.904Z,99.90
2017-11-26T15:00:05.801Z,99.90
2017-11-26T15:02:35.426Z,99.90
2017-11-26T15:05:05.371Z,99.90
2017-11-26T15:07:36.319Z,99.90
2017-11-26T15:10:06.713Z,99.90
2017-11-26T15:12:36.515Z,99.90
2017-11-26T15:15:06.743Z,99.90
2017-11-26T15:17:35.827Z,99.90
2017-11-26T15:20:04.771Z,99.90
2017-11-26T15:22:33.631Z,99.90
2017-11-26T15:25:03.165Z,99.90
2017-11-26T15:27:31.980Z,99.90
2017-11-26T15:30:01.136Z,99.90
2017-11-26T15:32:30.765Z,99.90
2017-11-26T15:34:59.667Z,99.90
2017-11-26T15:37:28.943Z,99.90
2017-11-26T15:39:57.829Z,99.90
2017-11-26T15:42:26.724Z,99.90
2017-11-26T15:44:55.236Z,99.90
2017-11-26T15:47:24.146Z,99.90
2017-11-26T15:49:52.821Z,99.90
2017-11-26T15:52:21.720Z,99.90
2017-11-26T15:54:50.608Z,99.90
2017-11-26T15:57:19.539Z,99.90
2017-11-26T15:59:48.745Z,99.90
2017-11-26T16:02:17.888Z,99.90
2017-11-26T16:04:47.052Z,99.90
2017-11-26T16:07:15.667Z,99.90
2017-11-26T16:09:44.071Z,99.90
2017-11-26T16:12:12.740Z,99.90
2017-11-26T16:14:41.427Z,99.90
2017-11-26T16:17:10.071Z,99.90
2017-11-26T16:19:38.874Z,99.90
2017-11-26T16:22:08.140Z,99.90
2017-11-26T16:24:37.459Z,99.90
2017-11-26T16:27:06.366Z,99.90
2017-11-26T16:29:35.585Z,99.90
2017-11-26T16:32:04.898Z,99.90
2017-11-26T16:34:34.638Z,99.90
2017-11-26T16:37:03.456Z,99.90
2017-11-26T16:39:33.111Z,99.90
2017-11-26T16:42:03.575Z,99.90
2017-11-26T16:44:32.352Z,99.90
2017-11-26T16:47:01.062Z,99.90
2017-11-26T16:49:29.745Z,99.90
2017-11-26T16:51:58.363Z,99.90
2017-11-26T16:54:28.041Z,99.90
2017-11-26T16:56:57.295Z,99.90
2017-11-26T16:59:26.019Z,99.90
2017-11-26T17:01:54.563Z,99.90
2017-11-26T17:04:24.118Z,99.90
2017-11-26T17:06:53.135Z,99.90
2017-11-26T17:09:22.018Z,99.90
2017-11-26T17:11:50.890Z,99.90
2017-11-26T17:14:19.525Z,99.90
2017-11-26T17:16:48.914Z,99.90
2017-11-26T17:19:17.712Z,99.90
2017-11-26T17:21:46.612Z,99.90
2017-11-26T17:24:16.139Z,99.90
2017-11-26T17:26:45.942Z,99.90
2017-11-26T17:29:14.739Z,99.90
2017-11-26T17:31:43.433Z,99.90
2017-11-26T17:34:13.051Z,99.90
2017-11-26T17:36:41.948Z,99.90
2017-11-26T17:39:10.459Z,99.90
2017-11-26T17:41:39.087Z,99.90
2017-11-26T17:44:07.780Z,99.90
2017-11-26T17:46:36.287Z,99.90
2017-11-26T17:49:04.928Z,99.90
2017-11-26T17:51:34.343Z,99.90
2017-11-26T17:54:02.793Z,99.90
2017-11-26T17:56:31.859Z,99.90
2017-11-26T17:59:00.273Z,99.90
2017-11-26T18:01:28.894Z,99.90
2017-11-26T18:03:57.848Z,99.90
2017-11-26T18:06:27.624Z,99.90
2017-11-26T18:08:56.385Z,99.90
2017-11-26T18:11:25.474Z,99.90
2017-11-26T18:13:54.611Z,99.90
2017-11-26T18:16:25.331Z,99.90
2017-11-26T18:18:54.291Z,99.90
2017-11-26T18:21:23.136Z,99.90
2017-11-26T18:23:52.946Z,99.90
2017-11-26T18:26:22.027Z,99.90
2017-11-26T18:28:51.664Z,99.90
2017-11-26T18:31:22.263Z,99.90
2017-11-26T18:33:51.244Z,99.90
2017-11-26T18:36:19.932Z,99.90
2017-11-26T18:38:48.909Z,99.90
2017-11-26T18:41:17.704Z,99.90
2017-11-26T18:43:46.298Z,99.90
2017-11-26T18:46:15.548Z,99.90
2017-11-26T18:48:44.081Z,99.90
2017-11-26T18:51:12.823Z,99.90
2017-11-26T18:53:41.836Z,99.90
2017-11-26T18:56:10.655Z,99.90
2017-11-26T18:58:39.441Z,99.90
2017-11-26T19:01:08.631Z,99.90
2017-11-26T19:03:38.482Z,99.90
2017-11-26T19:06:08.790Z,99.90
2017-11-26T19:08:38.752Z,99.90
2017-11-26T19:11:07.584Z,99.90
2017-11-26T19:13:37.902Z,99.90
2017-11-26T19:16:07.512Z,99.90
2017-11-26T19:18:37.285Z,99.90
2017-11-26T19:21:06.226Z,99.90
2017-11-26T19:23:36.410Z,99.90
2017-11-26T19:26:05.446Z,99.90
2017-11-26T19:28:35.880Z,99.90
2017-11-26T19:31:05.744Z,99.90
2017-11-26T19:33:34.968Z,99.90
2017-11-26T19:36:04.877Z,99.90
2017-11-26T19:38:34.602Z,99.90
2017-11-26T19:41:04.823Z,99.90
2017-11-26T19:43:33.796Z,99.90
2017-11-26T19:46:02.409Z,99.90
2017-11-26T19:48:31.796Z,99.90
2017-11-26T19:51:01.396Z,99.90
2017-11-26T19:53:31.905Z,99.90
2017-11-26T19:56:01.704Z,99.90
2017-11-26T19:58:32.130Z,99.90
2017-11-26T20:01:01.463Z,99.90
2017-11-26T20:03:31.613Z,99.90
2017-11-26T20:06:00.788Z,99.90
2017-11-26T20:08:29.575Z,99.90
2017-11-26T20:10:59.633Z,99.90
2017-11-26T20:13:28.450Z,99.90
2017-11-26T20:15:57.332Z,99.90
2017-11-26T20:18:29.283Z,99.90
2017-11-26T20:20:58.626Z,99.90
2017-11-26T20:23:27.787Z,99.90
2017-11-26T20:25:58.151Z,99.90
2017-11-26T20:28:27.895Z,99.90
2017-11-26T20:30:56.713Z,99.90
2017-11-26T20:33:25.615Z,99.90
2017-11-26T20:35:54.685Z,99.90
2017-11-26T20:38:23.519Z,99.90
2017-11-26T20:40:52.540Z,99.90
2017-11-26T20:43:22.112Z,99.90
2017-11-26T20:45:50.878Z,99.90
2017-11-26T20:48:20.107Z,99.90
2017-11-26T20:50:49.746Z,99.90
2017-11-26T20:53:18.932Z,99.90
2017-11-26T20:55:47.967Z,99.90
2017-11-26T20:58:16.741Z,99.90
2017-11-26T21:00:45.321Z,99.90
2017-11-26T21:03:14.831Z,99.90
2017-11-26T21:05:43.682Z,99.90
2017-11-26T21:08:14.444Z,99.90
2017-11-26T21:10:43.796Z,99.90
2017-11-26T21:13:12.682Z,99.90
2017-11-26T21:15:42.548Z,99.90
2017-11-26T21:18:11.603Z,99.90
2017-11-26T21:20:41.934Z,99.90
2017-11-26T21:23:10.769Z,99.90
2017-11-26T21:25:39.678Z,99.90
2017-11-26T21:28:08.928Z,99.90
2017-11-26T21:30:37.725Z,99.90
2017-11-26T21:33:07.311Z,99.90
2017-11-26T21:35:37.209Z,99.90
2017-11-26T21:38:06.817Z,99.90
2017-11-26T21:40:36.763Z,99.90
2017-11-26T21:43:06.723Z,99.90
2017-11-26T21:45:35.620Z,99.90
2017-11-26T21:48:06.449Z,99.90
2017-11-26T21:50:36.442Z,99.90
2017-11-26T21:53:06.845Z,99.90
2017-11-26T21:55:35.790Z,99.90
2017-11-26T21:58:04.601Z,99.90
2017-11-26T22:00:34.146Z,99.90
2017-11-26T22:03:02.906Z,99.90
2017-11-26T22:05:31.905Z,99.90
2017-11-26T22:08:01.132Z,99.90
2017-11-26T22:10:30.879Z,99.90
2017-11-26T22:12:59.854Z,99.90
2017-11-26T22:15:29.304Z,99.90
2017-11-26T22:17:58.217Z,99.90
2017-11-26T22:20:27.602Z,99.90
2017-11-26T22:22:57.431Z,99.90
2017-11-26T22:25:25.894Z,99.90
2017-11-26T22:27:54.325Z,99.90
2017-11-26T22:30:22.945Z,99.90
2017-11-26T22:32:52.155Z,99.90
2017-11-26T22:35:21.456Z,99.90
2017-11-26T22:37:50.353Z,99.90
2017-11-26T22:40:19.114Z,99.90
2017-11-26T22:42:47.885Z,99.90
2017-11-26T22:45:16.508Z,99.90
2017-11-26T22:47:44.889Z,99.90
2017-11-26T22:50:13.426Z,99.90
2017-11-26T22:52:42.023Z,99.90
2017-11-26T22:55:10.449Z,99.90
2017-11-26T22:57:39.600Z,99.90
2017-11-26T23:00:08.017Z,99.90
2017-11-26T23:02:36.386Z,99.90
2017-11-26T23:05:04.752Z,99.90
2017-11-26T23:07:33.160Z,99.90
2017-11-26T23:10:02.300Z,99.90
2017-11-26T23:12:30.693Z,99.90
2017-11-26T23:14:59.091Z,99.90
2017-11-26T23:17:27.469Z,99.90
2017-11-26T23:19:55.838Z,99.90
2017-11-26T23:22:25.046Z,99.90
2017-11-26T23:24:53.423Z,99.90
2017-11-26T23:27:21.809Z,99.90
2017-11-26T23:29:50.266Z,99.90
2017-11-26T23:32:18.656Z,99.90
2017-11-26T23:34:47.114Z,99.90
2017-11-26T23:37:15.515Z,99.90
2017-11-26T23:39:43.892Z,99.90
2017-11-26T23:42:12.380Z,99.90
2017-11-26T23:44:40.792Z,99.90
2017-11-26T23:47:09.940Z,99.90
2017-11-26T23:49:38.327Z,99.90
2017-11-26T23:52:06.726Z,99.90
2017-11-26T23:54:35.100Z,99.90
2017-11-26T23:57:03.478Z,99.90
2017-11-26T23:59:31.880Z,99.90
